createdAt,value
2023-04-18T00:01:15.535Z,2.95
2023-04-18T00:04:19.234Z,2.15
2023-04-18T00:10:24.295Z,2.30
2023-04-18T00:13:28.424Z,2.25
2023-04-18T00:16:33.129Z,2.25
2023-04-18T00:19:37.640Z,2.85
2023-04-18T00:22:43.901Z,2.85
2023-04-18T00:25:46.124Z,3.10
2023-04-18T00:28:48.863Z,2.35
2023-04-18T00:31:52.874Z,3.15
2023-04-18T00:34:55.359Z,2.30
2023-04-18T00:37:58.325Z,2.65
2023-04-18T00:41:00.809Z,2.53
2023-04-18T00:44:03.048Z,3.17
2023-04-18T00:47:05.946Z,2.85
2023-04-18T00:50:09.827Z,2.35
2023-04-18T00:53:13.450Z,2.65
2023-04-18T00:56:16.169Z,3.12
2023-04-18T00:59:18.964Z,2.85
2023-04-18T01:02:21.318Z,2.80
2023-04-18T01:05:24.050Z,2.57
2023-04-18T01:08:27.797Z,3.28
2023-04-18T01:11:32.826Z,3.28
2023-04-18T01:14:35.064Z,2.70
2023-04-18T01:20:45.826Z,3.10
2023-04-18T01:23:49.044Z,2.62
2023-04-18T01:26:51.381Z,2.83
2023-04-18T01:29:54.002Z,2.87
2023-04-18T01:32:56.372Z,2.97
2023-04-18T01:36:01.525Z,2.85
2023-04-18T01:39:06.645Z,3.17
2023-04-18T01:42:09.181Z,3.05
2023-04-18T01:48:15.840Z,2.78
2023-04-18T01:51:18.043Z,3.03
2023-04-18T01:54:20.639Z,2.50
2023-04-18T01:57:23.050Z,3.00
2023-04-18T02:00:25.980Z,3.30
2023-04-18T02:03:28.540Z,3.37
2023-04-18T02:06:31.283Z,3.28
2023-04-18T02:09:35.102Z,2.92
2023-04-18T02:12:38.886Z,3.62
2023-04-18T02:15:41.395Z,3.37
2023-04-18T02:18:43.914Z,3.43
2023-04-18T02:21:46.131Z,3.20
2023-04-18T02:24:49.975Z,3.70
2023-04-18T02:27:52.958Z,3.67
2023-04-18T02:30:55.923Z,3.22
2023-04-18T02:33:59.231Z,3.08
2023-04-18T02:40:05.716Z,3.33
2023-04-18T02:43:09.109Z,3.47
2023-04-18T02:46:12.108Z,3.15
2023-04-18T02:49:14.747Z,3.33
2023-04-18T02:52:17.137Z,3.15
2023-04-18T02:55:19.738Z,3.25
2023-04-18T02:58:22.733Z,3.40
2023-04-18T03:01:26.590Z,4.43
2023-04-18T03:04:29.277Z,4.00
2023-04-18T03:07:32.317Z,4.28
2023-04-18T03:10:34.955Z,3.93
2023-04-18T03:13:37.760Z,4.27
2023-04-18T03:16:40.665Z,4.10
2023-04-18T03:19:45.426Z,4.43
2023-04-18T03:25:52.023Z,4.03
2023-04-18T03:28:54.617Z,4.00
2023-04-18T03:31:57.084Z,4.28
2023-04-18T03:34:59.602Z,4.87
2023-04-18T03:38:02.159Z,4.53
2023-04-18T03:41:04.885Z,4.80
2023-04-18T03:44:07.721Z,4.15
2023-04-18T03:47:11.251Z,4.67
2023-04-18T03:50:15.286Z,4.75
2023-04-18T03:53:18.201Z,5.30
2023-04-18T03:56:20.935Z,4.20
2023-04-18T03:59:23.423Z,4.45
2023-04-18T04:02:26.408Z,5.27
2023-04-18T04:05:29.367Z,4.95
2023-04-18T04:08:32.579Z,4.07
2023-04-18T04:11:35.110Z,4.53
2023-04-18T04:14:38.115Z,4.60
2023-04-18T04:17:41.091Z,5.37
2023-04-18T04:20:46.221Z,4.30
2023-04-18T04:23:49.052Z,4.87
2023-04-18T04:26:53.258Z,4.40
2023-04-18T04:29:56.835Z,4.45
2023-04-18T04:32:59.759Z,5.72
2023-04-18T04:36:02.410Z,5.05
2023-04-18T04:39:05.590Z,5.18
2023-04-18T04:42:09.668Z,5.55
2023-04-18T04:45:13.810Z,4.95
2023-04-18T04:48:16.749Z,4.80
2023-04-18T04:51:18.956Z,4.43
2023-04-18T04:54:21.546Z,5.03
2023-04-18T04:57:24.048Z,4.45
2023-04-18T05:00:27.240Z,5.30
2023-04-18T05:03:29.588Z,5.82
2023-04-18T05:06:32.462Z,4.85
2023-04-18T05:09:34.653Z,5.32
2023-04-18T05:12:40.066Z,5.30
2023-04-18T05:15:42.668Z,5.10
2023-04-18T05:18:45.127Z,4.82
2023-04-18T05:21:47.356Z,5.43
2023-04-18T05:24:49.783Z,5.93
2023-04-18T05:27:52.079Z,5.78
2023-04-18T05:31:01.032Z,6.65
2023-04-18T05:34:03.528Z,5.50
2023-04-18T05:37:06.415Z,6.77
2023-04-18T05:40:09.148Z,5.57
2023-04-18T05:43:11.827Z,5.97
2023-04-18T05:46:14.451Z,4.50
2023-04-18T05:49:17.092Z,5.73
2023-04-18T05:52:19.366Z,6.53
2023-04-18T05:55:21.976Z,4.82
2023-04-18T05:58:24.162Z,6.40
2023-04-18T06:01:27.511Z,5.45
2023-04-18T06:04:30.166Z,5.20
2023-04-18T06:07:32.779Z,4.55
2023-04-18T06:10:37.665Z,5.05
2023-04-18T06:13:41.702Z,4.93
2023-04-18T06:16:46.831Z,5.05
2023-04-18T06:19:49.603Z,4.10
2023-04-18T06:22:52.360Z,5.72
2023-04-18T06:25:54.892Z,5.07
2023-04-18T06:28:57.469Z,4.80
2023-04-18T06:32:00.007Z,5.25
2023-04-18T06:35:02.664Z,4.22
2023-04-18T06:38:04.803Z,4.20
2023-04-18T06:41:07.302Z,4.28
2023-04-18T06:44:09.548Z,5.25
2023-04-18T06:47:12.344Z,3.60
2023-04-18T06:50:15.150Z,3.70
2023-04-18T06:53:17.890Z,4.18
2023-04-18T06:56:21.170Z,3.78
2023-04-18T06:59:23.785Z,3.72
2023-04-18T07:02:26.180Z,2.97
2023-04-18T07:05:28.852Z,3.78
2023-04-18T07:08:31.192Z,3.80
2023-04-18T07:11:34.106Z,4.00
2023-04-18T07:14:36.312Z,4.20
2023-04-18T07:17:39.437Z,5.00
2023-04-18T07:20:41.776Z,3.95
2023-04-18T07:23:44.262Z,3.50
2023-04-18T07:26:46.465Z,3.65
2023-04-18T07:29:48.894Z,3.33
2023-04-18T07:32:51.312Z,3.78
2023-04-18T07:35:53.840Z,2.75
2023-04-18T07:38:55.967Z,3.47
2023-04-18T07:41:58.891Z,3.62
2023-04-18T07:45:01.114Z,3.40
2023-04-18T07:48:04.252Z,3.20
2023-04-18T07:51:06.526Z,3.00
2023-04-18T07:54:11.075Z,3.97
2023-04-18T07:57:13.389Z,3.85
2023-04-18T08:00:17.472Z,3.33
2023-04-18T08:03:20.211Z,3.75
2023-04-18T08:06:23.197Z,2.50
2023-04-18T08:12:28.309Z,2.83
2023-04-18T08:15:33.039Z,3.10
2023-04-18T08:18:35.886Z,3.62
2023-04-18T08:21:39.856Z,2.67
2023-04-18T08:25:04.425Z,2.60
2023-04-18T08:28:08.575Z,2.70
2023-04-18T08:31:15.066Z,2.30
2023-04-18T08:34:17.740Z,2.97
2023-04-18T08:37:19.952Z,3.17
2023-04-18T08:40:27.835Z,2.40
2023-04-18T08:43:38.878Z,2.58
2023-04-18T08:46:41.851Z,1.80
2023-04-18T08:49:45.550Z,2.58
2023-04-18T08:52:51.174Z,2.20
2023-04-18T08:55:57.440Z,2.70
2023-04-18T08:59:00.199Z,2.42
2023-04-18T09:02:04.224Z,2.70
2023-04-18T09:05:20.105Z,1.80
2023-04-18T09:08:24.372Z,1.15
2023-04-18T09:11:29.696Z,1.40
2023-04-18T09:14:32.662Z,1.30
2023-04-18T09:17:42.432Z,1.60
2023-04-18T09:20:47.712Z,2.08
2023-04-18T09:23:50.504Z,1.75
2023-04-18T09:26:54.077Z,1.55
2023-04-18T09:29:58.034Z,1.67
2023-04-18T09:33:03.283Z,1.65
2023-04-18T09:36:19.643Z,1.65
2023-04-18T09:39:28.620Z,1.33
2023-04-18T09:42:36.208Z,2.30
2023-04-18T09:45:39.023Z,1.87
2023-04-18T09:48:41.945Z,2.03
2023-04-18T09:51:46.210Z,1.83
2023-04-18T09:54:53.784Z,2.10
2023-04-18T09:57:57.164Z,3.30
2023-04-18T10:01:00.263Z,2.45
2023-04-18T10:04:06.308Z,2.12
2023-04-18T10:07:08.925Z,2.05
2023-04-18T10:10:12.028Z,2.22
2023-04-18T10:13:14.730Z,3.58
2023-04-18T10:16:18.143Z,2.97
2023-04-18T10:19:23.266Z,2.28
2023-04-18T10:22:27.495Z,1.92
2023-04-18T10:25:38.853Z,2.28
2023-04-18T10:28:58.044Z,2.65
2023-04-18T10:32:06.204Z,2.45
2023-04-18T10:35:10.562Z,2.28
2023-04-18T10:38:23.255Z,2.03
2023-04-18T10:41:27.893Z,1.17
2023-04-18T10:44:30.041Z,1.17
2023-04-18T10:47:32.746Z,1.13
2023-04-18T10:50:55.034Z,1.93
2023-04-18T10:54:00.875Z,1.48
2023-04-18T10:57:04.479Z,1.65
2023-04-18T11:00:13.732Z,1.10
2023-04-18T11:03:16.263Z,1.20
2023-04-18T11:06:19.027Z,1.20
2023-04-18T11:12:36.104Z,1.10
2023-04-18T11:21:52.635Z,1.45
2023-04-18T11:25:00.129Z,1.17
2023-04-18T11:28:03.967Z,1.00
2023-04-18T11:31:06.804Z,1.10
2023-04-18T11:34:09.242Z,1.70
2023-04-18T11:37:15.512Z,1.08
2023-04-18T11:40:17.835Z,1.65
2023-04-18T11:43:22.658Z,1.30
2023-04-18T11:46:37.864Z,1.80
2023-04-18T11:49:40.621Z,1.58
2023-04-18T11:52:43.090Z,1.40
2023-04-18T11:55:55.857Z,1.77
2023-04-18T11:58:58.235Z,1.83
2023-04-18T12:02:15.263Z,2.30
2023-04-18T12:05:27.624Z,1.67
2023-04-18T12:08:31.727Z,1.67
2023-04-18T12:11:34.664Z,1.75
2023-04-18T12:14:36.844Z,1.30
2023-04-18T12:17:39.456Z,1.97
2023-04-18T12:20:52.378Z,1.52
2023-04-18T12:23:55.533Z,2.05
2023-04-18T12:26:58.581Z,1.60
2023-04-18T12:33:04.206Z,1.92
2023-04-18T12:36:08.554Z,2.45
2023-04-18T12:39:10.802Z,1.70
2023-04-18T12:42:13.669Z,1.52
2023-04-18T12:45:17.469Z,1.23
2023-04-18T12:48:20.228Z,1.50
2023-04-18T12:51:23.221Z,1.50
2023-04-18T12:54:25.807Z,1.90
2023-04-18T12:57:29.441Z,1.62
2023-04-18T13:00:34.227Z,1.50
2023-04-18T13:03:37.325Z,1.50
2023-04-18T13:06:40.413Z,1.52
2023-04-18T13:09:42.716Z,1.67
2023-04-18T13:12:46.474Z,1.60
2023-04-18T13:15:48.764Z,1.30
2023-04-18T13:18:51.244Z,1.37
2023-04-18T13:21:53.392Z,1.25
2023-04-18T13:24:55.911Z,1.63
2023-04-18T13:27:58.534Z,1.60
2023-04-18T13:31:01.228Z,1.58
2023-04-18T13:34:03.511Z,1.37
2023-04-18T13:37:06.586Z,1.80
2023-04-18T13:40:09.435Z,1.83
2023-04-18T13:43:13.072Z,1.30
2023-04-18T13:49:18.048Z,1.80
2023-04-18T13:52:20.357Z,1.77
2023-04-18T13:55:22.974Z,1.60
2023-04-18T13:58:25.650Z,1.67
2023-04-18T14:01:28.418Z,1.58
2023-04-18T14:04:32.736Z,1.20
2023-04-18T14:07:36.263Z,1.50
2023-04-18T14:10:38.955Z,1.60
2023-04-18T14:13:41.295Z,1.87
2023-04-18T14:16:43.967Z,2.08
2023-04-18T14:19:46.188Z,1.48
2023-04-18T14:22:52.322Z,1.58
2023-04-18T14:25:55.575Z,1.50
2023-04-18T14:28:58.162Z,1.85
2023-04-18T14:32:00.750Z,2.87
2023-04-18T14:35:05.950Z,1.87
2023-04-18T14:38:08.249Z,1.42
2023-04-18T14:41:11.145Z,1.60
2023-04-18T14:44:14.585Z,2.13
2023-04-18T14:47:18.534Z,1.62
2023-04-18T14:50:20.826Z,1.50
2023-04-18T14:53:23.780Z,1.62
2023-04-18T14:56:26.639Z,1.67
2023-04-18T14:59:29.153Z,2.08
2023-04-18T15:02:31.603Z,1.70
2023-04-18T15:05:34.957Z,1.75
2023-04-18T15:08:37.223Z,1.73
2023-04-18T15:11:39.758Z,1.57
2023-04-18T15:14:41.979Z,1.52
2023-04-18T15:17:44.480Z,1.50
2023-04-18T15:20:47.412Z,1.60
2023-04-18T15:23:49.869Z,1.58
2023-04-18T15:26:52.265Z,2.40
2023-04-18T15:29:57.442Z,1.53
2023-04-18T15:32:59.688Z,1.70
2023-04-18T15:36:02.208Z,1.50
2023-04-18T15:39:05.832Z,2.10
2023-04-18T15:42:08.358Z,2.42
2023-04-18T15:45:11.620Z,1.90
2023-04-18T15:51:16.086Z,2.17
2023-04-18T15:54:18.558Z,2.40
2023-04-18T15:57:21.412Z,2.15
2023-04-18T16:00:24.423Z,1.95
2023-04-18T16:03:27.228Z,1.50
2023-04-18T16:06:31.229Z,2.55
2023-04-18T16:09:34.042Z,2.47
2023-04-18T16:12:37.712Z,1.90
2023-04-18T16:15:41.864Z,1.52
2023-04-18T16:18:44.116Z,2.17
2023-04-18T16:21:48.780Z,2.37
2023-04-18T16:24:50.923Z,2.47
2023-04-18T16:27:53.805Z,2.62
2023-04-18T16:30:56.301Z,1.48
2023-04-18T16:33:58.859Z,2.10
2023-04-18T16:37:01.196Z,2.03
2023-04-18T16:40:08.470Z,2.22
2023-04-18T16:43:10.656Z,2.90
2023-04-18T16:46:13.736Z,1.80
2023-04-18T16:49:16.151Z,2.00
2023-04-18T16:52:18.794Z,2.27
2023-04-18T16:55:21.075Z,2.15
2023-04-18T16:58:23.694Z,2.70
2023-04-18T17:01:26.023Z,1.92
2023-04-18T17:04:29.152Z,2.10
2023-04-18T17:07:31.448Z,2.22
2023-04-18T17:10:34.503Z,2.35
2023-04-18T17:13:37.145Z,2.07
2023-04-18T17:16:41.039Z,1.98
2023-04-18T17:19:43.350Z,2.15
2023-04-18T17:22:45.906Z,2.33
2023-04-18T17:25:48.287Z,2.25
2023-04-18T17:28:50.833Z,2.67
2023-04-18T17:31:53.179Z,2.65
2023-04-18T17:34:56.146Z,2.63
2023-04-18T17:37:58.431Z,2.12
2023-04-18T17:41:02.363Z,2.20
2023-04-18T17:47:07.582Z,2.25
2023-04-18T17:50:11.164Z,2.45
2023-04-18T17:53:15.814Z,3.33
2023-04-18T17:56:18.060Z,2.30
2023-04-18T17:59:20.655Z,2.10
2023-04-18T18:02:28.045Z,2.05
2023-04-18T18:05:30.766Z,2.87
2023-04-18T18:08:32.953Z,2.83
2023-04-18T18:11:35.695Z,2.42
2023-04-18T18:14:38.051Z,2.75
2023-04-18T18:17:40.671Z,2.90
2023-04-18T18:20:43.309Z,2.28
2023-04-18T18:23:45.939Z,3.05
2023-04-18T18:26:50.980Z,2.78
2023-04-18T18:29:54.369Z,2.62
2023-04-18T18:32:59.981Z,3.22
2023-04-18T18:36:02.699Z,3.28
2023-04-18T18:39:05.289Z,3.17
2023-04-18T18:42:07.867Z,3.30
2023-04-18T18:45:11.643Z,4.40
2023-04-18T18:48:15.357Z,3.03
2023-04-18T18:51:19.001Z,4.22
2023-04-18T18:54:21.493Z,3.75
2023-04-18T18:57:23.728Z,3.22
2023-04-18T19:00:26.288Z,3.67
2023-04-18T19:03:29.057Z,3.55
2023-04-18T19:06:32.136Z,2.78
2023-04-18T19:09:36.867Z,3.23
2023-04-18T19:12:39.434Z,3.55
2023-04-18T19:15:41.614Z,3.30
2023-04-18T19:18:47.052Z,4.25
2023-04-18T19:21:50.088Z,4.70
2023-04-18T19:24:52.589Z,3.72
2023-04-18T19:27:54.770Z,3.70
2023-04-18T19:30:57.363Z,3.62
2023-04-18T19:33:59.596Z,3.33
2023-04-18T19:37:02.171Z,3.15
2023-04-18T19:40:04.808Z,3.45
2023-04-18T19:43:07.309Z,3.75
2023-04-18T19:46:09.671Z,3.55
2023-04-18T19:49:12.459Z,3.70
2023-04-18T19:52:14.766Z,3.58
2023-04-18T19:55:17.214Z,3.78
2023-04-18T19:58:44.850Z,4.10
2023-04-18T20:01:47.606Z,3.10
2023-04-18T20:04:50.611Z,3.72
2023-04-18T20:07:52.891Z,3.27
2023-04-18T20:10:56.201Z,3.33
2023-04-18T20:13:58.444Z,3.22
2023-04-18T20:17:00.944Z,2.87
2023-04-18T20:20:04.499Z,3.20
2023-04-18T20:23:07.370Z,3.20
2023-04-18T20:26:09.712Z,3.20
2023-04-18T20:29:12.496Z,2.42
2023-04-18T20:32:14.983Z,3.00
2023-04-18T20:35:17.612Z,3.00
2023-04-18T20:38:20.076Z,3.17
2023-04-18T20:41:24.253Z,2.90
2023-04-18T20:44:26.541Z,2.78
2023-04-18T20:47:29.032Z,2.35
2023-04-18T20:50:31.452Z,1.83
2023-04-18T20:53:34.012Z,2.23
2023-04-18T20:56:36.992Z,2.95
2023-04-18T20:59:39.489Z,2.70
2023-04-18T21:02:41.979Z,2.60
2023-04-18T21:05:45.032Z,2.37
2023-04-18T21:08:47.615Z,2.30
2023-04-18T21:11:50.052Z,2.85
2023-04-18T21:14:52.499Z,2.70
2023-04-18T21:17:55.928Z,3.10
2023-04-18T21:20:58.196Z,2.70
2023-04-18T21:24:01.738Z,2.50
2023-04-18T21:27:04.159Z,3.60
2023-04-18T21:30:07.240Z,4.57
2023-04-18T21:33:09.497Z,3.00
2023-04-18T21:36:11.922Z,3.35
2023-04-18T21:39:14.125Z,2.97
2023-04-18T21:42:16.868Z,3.85
2023-04-18T21:45:19.106Z,3.47
2023-04-18T21:48:21.728Z,2.70
2023-04-18T21:51:23.930Z,4.20
2023-04-18T21:54:26.464Z,3.20
2023-04-18T21:57:28.796Z,4.30
2023-04-18T22:00:31.287Z,3.62
2023-04-18T22:03:34.448Z,3.28
2023-04-18T22:06:36.771Z,3.42
2023-04-18T22:09:39.758Z,3.45
2023-04-18T22:12:42.425Z,4.37
2023-04-18T22:15:45.026Z,3.12
2023-04-18T22:18:48.822Z,2.55
2023-04-18T22:21:51.561Z,2.95
2023-04-18T22:24:53.820Z,3.05
2023-04-18T22:27:56.495Z,3.30
2023-04-18T22:30:58.722Z,3.42
2023-04-18T22:34:01.434Z,3.40
2023-04-18T22:37:03.711Z,3.03
2023-04-18T22:40:07.000Z,3.08
2023-04-18T22:43:09.174Z,3.25
2023-04-18T22:46:11.654Z,3.03
2023-04-18T22:49:14.224Z,2.70
2023-04-18T22:52:16.659Z,3.00
2023-04-18T22:55:19.948Z,3.70
2023-04-18T22:58:22.424Z,3.33
2023-04-18T23:01:24.671Z,3.15
2023-04-18T23:04:30.022Z,2.60
2023-04-18T23:07:32.405Z,3.00
2023-04-18T23:10:35.099Z,2.65
2023-04-18T23:13:37.315Z,3.62
2023-04-18T23:16:41.033Z,3.45
2023-04-18T23:19:45.168Z,3.00
2023-04-18T23:22:50.069Z,2.60
2023-04-18T23:25:52.290Z,3.35
2023-04-18T23:28:54.844Z,3.37
2023-04-18T23:31:57.097Z,3.28
2023-04-18T23:35:04.080Z,3.53
2023-04-18T23:38:06.287Z,2.70
2023-04-18T23:41:08.734Z,3.35
2023-04-18T23:44:10.911Z,3.28
2023-04-18T23:47:13.450Z,4.03
2023-04-18T23:50:15.803Z,3.00
2023-04-18T23:53:19.257Z,3.03
2023-04-18T23:56:23.116Z,3.35
2023-04-18T23:59:25.588Z,3.17
